createdAt,value
2018-01-27T00:00:22.924Z,7.39
2018-01-27T00:01:23.333Z,7.37
2018-01-27T00:02:22.892Z,7.30
2018-01-27T00:03:22.825Z,7.35
2018-01-27T00:04:22.849Z,7.31
2018-01-27T00:05:22.832Z,7.32
2018-01-27T00:06:22.839Z,7.35
2018-01-27T00:07:22.857Z,7.40
2018-01-27T00:08:22.868Z,7.31
2018-01-27T00:09:23.045Z,7.35
2018-01-27T00:10:23.002Z,7.28
2018-01-27T00:11:22.955Z,7.37
2018-01-27T00:12:22.948Z,7.35
2018-01-27T00:13:22.937Z,7.28
2018-01-27T00:14:22.950Z,7.37
2018-01-27T00:15:22.969Z,7.39
2018-01-27T00:16:22.980Z,7.35
2018-01-27T00:17:22.994Z,7.32
2018-01-27T00:18:23.006Z,7.39
2018-01-27T00:19:23.020Z,7.40
2018-01-27T00:20:23.036Z,7.34
2018-01-27T00:21:23.200Z,7.35
2018-01-27T00:22:23.068Z,7.27
2018-01-27T00:23:23.074Z,7.32
2018-01-27T00:24:23.089Z,7.37
2018-01-27T00:25:23.103Z,7.35
2018-01-27T00:26:23.115Z,7.35
2018-01-27T00:27:23.134Z,7.27
2018-01-27T00:28:23.142Z,7.35
2018-01-27T00:29:23.159Z,7.32
2018-01-27T00:30:23.172Z,7.35
2018-01-27T00:31:23.187Z,7.31
2018-01-27T00:32:23.195Z,7.34
2018-01-27T00:33:23.213Z,7.34
2018-01-27T00:34:23.231Z,7.34
2018-01-27T00:35:23.240Z,7.39
2018-01-27T00:36:23.289Z,7.37
2018-01-27T00:37:23.323Z,7.28
2018-01-27T00:38:23.321Z,7.31
2018-01-27T00:39:23.294Z,7.35
2018-01-27T00:41:23.322Z,7.34
2018-01-27T00:42:23.341Z,7.28
2018-01-27T00:43:23.354Z,7.17
2018-01-27T00:44:23.364Z,7.21
2018-01-27T00:45:23.384Z,7.25
2018-01-27T00:46:23.388Z,7.24
2018-01-27T00:47:23.404Z,7.21
2018-01-27T00:48:23.419Z,7.24
2018-01-27T00:49:23.431Z,7.15
2018-01-27T00:50:23.448Z,7.21
2018-01-27T00:51:23.457Z,7.21
2018-01-27T00:54:23.501Z,7.15
2018-01-27T00:55:23.513Z,7.20
2018-01-27T00:56:23.531Z,7.09
2018-01-27T00:57:23.539Z,7.17
2018-01-27T00:58:23.549Z,7.15
2018-01-27T00:59:23.571Z,7.15
2018-01-27T01:00:23.583Z,7.07
2018-01-27T01:01:23.597Z,7.17
2018-01-27T01:02:23.606Z,7.10
2018-01-27T01:03:23.618Z,7.07
2018-01-27T01:04:23.636Z,7.02
2018-01-27T01:05:23.656Z,7.07
2018-01-27T01:06:23.663Z,7.03
2018-01-27T01:07:23.830Z,7.07
2018-01-27T01:09:23.811Z,7.03
2018-01-27T01:10:24.129Z,6.94
2018-01-27T01:11:23.821Z,6.91
2018-01-27T01:12:23.746Z,6.99
2018-01-27T01:13:23.756Z,6.97
2018-01-27T01:14:23.776Z,6.97
2018-01-27T01:15:23.935Z,6.99
2018-01-27T01:16:24.100Z,7.02
2018-01-27T01:17:23.811Z,7.02
2018-01-27T01:18:23.825Z,6.99
2018-01-27T01:19:23.837Z,7.03
2018-01-27T01:20:23.852Z,7.03
2018-01-27T01:21:23.917Z,7.06
2018-01-27T01:22:23.903Z,7.02
2018-01-27T01:23:23.910Z,7.03
2018-01-27T01:24:23.911Z,7.02
2018-01-27T01:25:23.917Z,7.03
2018-01-27T01:26:23.934Z,7.03
2018-01-27T01:27:23.949Z,7.05
2018-01-27T01:28:23.959Z,7.05
2018-01-27T01:29:23.975Z,7.09
2018-01-27T01:30:23.990Z,7.05
2018-01-27T01:31:24.003Z,7.13
2018-01-27T01:32:24.017Z,7.10
2018-01-27T01:33:24.025Z,7.13
2018-01-27T01:34:24.043Z,7.10
2018-01-27T01:35:24.052Z,7.05
2018-01-27T01:36:24.067Z,7.03
2018-01-27T01:37:24.083Z,7.10
2018-01-27T01:38:24.097Z,7.06
2018-01-27T01:39:24.109Z,7.05
2018-01-27T01:40:24.121Z,7.02
2018-01-27T01:41:24.141Z,6.97
2018-01-27T01:42:24.308Z,7.03
2018-01-27T01:43:24.185Z,7.03
2018-01-27T01:44:24.176Z,6.95
2018-01-27T01:45:24.189Z,7.02
2018-01-27T01:46:24.203Z,6.98
2018-01-27T01:47:24.217Z,7.02
2018-01-27T01:48:24.231Z,7.03
2018-01-27T01:49:24.396Z,7.05
2018-01-27T01:50:24.264Z,6.99
2018-01-27T01:51:24.271Z,7.05
2018-01-27T01:52:24.287Z,7.03
2018-01-27T01:53:24.298Z,6.97
2018-01-27T01:54:24.313Z,7.02
2018-01-27T01:55:24.328Z,6.98
2018-01-27T01:56:24.342Z,6.95
2018-01-27T01:57:24.352Z,7.02
2018-01-27T01:58:24.366Z,7.09
2018-01-27T01:59:24.380Z,7.06
2018-01-27T02:00:24.394Z,7.12
2018-01-27T02:01:24.412Z,7.12
2018-01-27T02:02:24.570Z,7.13
2018-01-27T02:03:24.435Z,7.12
2018-01-27T02:04:24.449Z,7.02
2018-01-27T02:05:24.462Z,6.99
2018-01-27T02:06:24.632Z,6.98
2018-01-27T02:07:24.488Z,7.02
2018-01-27T02:08:24.511Z,6.97
2018-01-27T02:09:24.517Z,6.95
2018-01-27T02:10:24.533Z,6.98
2018-01-27T02:11:24.542Z,7.03
2018-01-27T02:12:24.559Z,7.05
2018-01-27T02:13:24.621Z,6.92
2018-01-27T02:14:24.595Z,6.94
2018-01-27T02:15:24.891Z,6.98
2018-01-27T02:16:24.615Z,7.06
2018-01-27T02:17:24.625Z,7.02
2018-01-27T02:18:24.640Z,6.97
2018-01-27T02:19:24.656Z,6.92
2018-01-27T02:20:24.682Z,6.98
2018-01-27T02:21:24.683Z,6.88
2018-01-27T02:22:24.695Z,6.95
2018-01-27T02:23:24.708Z,6.85
2018-01-27T02:24:24.720Z,6.91
2018-01-27T02:25:24.736Z,6.94
2018-01-27T02:26:24.746Z,6.92
2018-01-27T02:27:24.760Z,6.92
2018-01-27T02:28:24.776Z,6.88
2018-01-27T02:29:24.788Z,6.88
2018-01-27T02:30:24.802Z,6.88
2018-01-27T02:31:24.965Z,6.84
2018-01-27T02:32:24.832Z,6.84
2018-01-27T02:33:24.842Z,6.91
2018-01-27T02:34:24.855Z,6.91
2018-01-27T02:35:24.871Z,6.91
2018-01-27T02:36:25.031Z,6.88
2018-01-27T02:37:24.896Z,6.94
2018-01-27T02:38:24.907Z,6.94
2018-01-27T02:39:24.923Z,6.95
2018-01-27T02:40:24.936Z,7.02
2018-01-27T02:41:24.949Z,6.95
2018-01-27T02:42:24.966Z,6.85
2018-01-27T02:43:25.126Z,6.88
2018-01-27T02:44:24.994Z,6.81
2018-01-27T02:45:25.003Z,6.87
2018-01-27T02:46:25.022Z,6.87
2018-01-27T02:47:25.029Z,6.92
2018-01-27T02:48:25.043Z,6.88
2018-01-27T02:49:25.060Z,6.81
2018-01-27T02:50:25.077Z,6.88
2018-01-27T02:51:25.086Z,6.87
2018-01-27T02:52:25.101Z,6.79
2018-01-27T02:53:25.112Z,6.73
2018-01-27T02:54:25.127Z,6.71
2018-01-27T02:55:25.140Z,6.80
2018-01-27T02:56:25.151Z,6.80
2018-01-27T02:57:25.167Z,6.80
2018-01-27T02:58:25.181Z,6.79
2018-01-27T02:59:25.195Z,6.74
2018-01-27T03:00:25.212Z,6.76
2018-01-27T03:01:25.219Z,6.80
2018-01-27T03:02:25.234Z,6.71
2018-01-27T03:03:25.398Z,6.81
2018-01-27T03:04:25.259Z,6.85
2018-01-27T03:05:25.285Z,6.87
2018-01-27T03:06:25.288Z,6.80
2018-01-27T03:07:25.299Z,6.76
2018-01-27T03:08:25.308Z,6.76
2018-01-27T03:09:25.319Z,6.81
2018-01-27T03:10:25.343Z,6.80
2018-01-27T03:11:25.346Z,6.70
2018-01-27T03:12:25.434Z,6.69
2018-01-27T03:13:25.472Z,6.69
2018-01-27T03:14:25.385Z,6.70
2018-01-27T03:15:25.403Z,6.69
2018-01-27T03:16:25.416Z,6.70
2018-01-27T03:17:25.426Z,6.69
2018-01-27T03:18:25.440Z,6.74
2018-01-27T03:19:25.527Z,6.76
2018-01-27T03:20:25.467Z,6.77
2018-01-27T03:21:25.488Z,6.87
2018-01-27T03:22:25.497Z,6.76
2018-01-27T03:23:25.507Z,6.81
2018-01-27T03:24:25.524Z,6.84
2018-01-27T03:25:25.533Z,6.84
2018-01-27T03:26:25.547Z,6.84
2018-01-27T03:27:25.560Z,6.85
2018-01-27T03:28:25.584Z,6.79
2018-01-27T03:29:25.586Z,6.73
2018-01-27T03:30:25.606Z,6.79
2018-01-27T03:31:25.767Z,6.84
2018-01-27T03:32:25.626Z,6.73
2018-01-27T03:33:25.643Z,6.76
2018-01-27T03:34:25.653Z,6.79
2018-01-27T03:35:25.667Z,6.71
2018-01-27T03:36:25.680Z,6.73
2018-01-27T03:37:25.695Z,6.69
2018-01-27T03:38:25.708Z,6.66
2018-01-27T03:39:25.720Z,6.69
2018-01-27T03:40:25.740Z,6.66
2018-01-27T03:41:25.748Z,6.61
2018-01-27T03:42:25.760Z,6.64
2018-01-27T03:43:25.774Z,6.69
2018-01-27T03:44:25.993Z,6.71
2018-01-27T03:45:25.802Z,6.69
2018-01-27T03:46:25.814Z,6.76
2018-01-27T03:47:25.862Z,6.79
2018-01-27T03:48:25.851Z,6.71
2018-01-27T03:49:25.854Z,6.69
2018-01-27T03:50:25.868Z,6.62
2018-01-27T03:51:25.931Z,6.56
2018-01-27T03:52:25.898Z,6.55
2018-01-27T03:53:25.909Z,6.52
2018-01-27T03:54:25.921Z,6.58
2018-01-27T03:55:25.934Z,6.52
2018-01-27T03:56:25.949Z,6.56
2018-01-27T03:57:25.961Z,6.44
2018-01-27T03:58:25.975Z,6.41
2018-01-27T03:59:26.317Z,6.41
2018-01-27T04:00:26.529Z,6.51
2018-01-27T04:01:26.015Z,6.49
2018-01-27T04:02:26.028Z,6.44
2018-01-27T04:03:26.043Z,6.41
2018-01-27T04:04:26.059Z,6.44
2018-01-27T04:05:26.068Z,6.46
2018-01-27T04:06:26.087Z,6.54
2018-01-27T04:07:26.094Z,6.52
2018-01-27T04:08:26.109Z,6.64
2018-01-27T04:09:26.123Z,6.55
2018-01-27T04:10:26.133Z,6.56
2018-01-27T04:11:26.148Z,6.67
2018-01-27T04:12:26.310Z,6.66
2018-01-27T04:13:26.173Z,6.67
2018-01-27T04:14:26.191Z,6.64
2018-01-27T04:15:26.202Z,6.66
2018-01-27T04:16:26.224Z,6.71
2018-01-27T04:17:26.264Z,6.69
2018-01-27T04:18:26.241Z,6.66
2018-01-27T04:19:26.251Z,6.62
2018-01-27T04:20:26.273Z,6.66
2018-01-27T04:21:26.279Z,6.62
2018-01-27T04:22:26.294Z,6.69
2018-01-27T04:23:26.352Z,6.55
2018-01-27T04:24:26.316Z,6.59
2018-01-27T04:25:26.329Z,6.56
2018-01-27T04:26:26.344Z,6.59
2018-01-27T04:27:26.357Z,6.58
2018-01-27T04:28:26.370Z,6.52
2018-01-27T04:29:26.382Z,6.56
2018-01-27T04:30:26.396Z,6.49
2018-01-27T04:31:26.418Z,6.49
2018-01-27T04:32:26.470Z,6.48
2018-01-27T04:33:26.434Z,6.44
2018-01-27T04:34:26.446Z,6.52
2018-01-27T04:35:26.460Z,6.40
2018-01-27T04:36:26.471Z,6.43
2018-01-27T04:37:26.498Z,6.46
2018-01-27T04:38:26.497Z,6.41
2018-01-27T04:39:26.532Z,6.40
2018-01-27T04:40:26.528Z,6.44
2018-01-27T04:41:26.543Z,6.54
2018-01-27T04:42:26.550Z,6.48
2018-01-27T04:43:26.562Z,6.46
2018-01-27T04:44:26.576Z,6.44
2018-01-27T04:45:26.589Z,6.46
2018-01-27T04:46:26.605Z,6.54
2018-01-27T04:47:26.616Z,6.59
2018-01-27T04:48:26.629Z,6.48
2018-01-27T04:49:26.644Z,6.48
2018-01-27T04:50:26.660Z,6.49
2018-01-27T04:51:26.668Z,6.51
2018-01-27T04:52:27.021Z,6.48
2018-01-27T04:53:27.010Z,6.49
2018-01-27T04:54:26.732Z,6.44
2018-01-27T04:55:26.718Z,6.41
2018-01-27T04:56:27.071Z,6.51
2018-01-27T04:57:26.753Z,6.38
2018-01-27T04:58:26.758Z,6.51
2018-01-27T04:59:26.774Z,6.48
2018-01-27T05:00:26.836Z,6.58
2018-01-27T05:01:26.801Z,6.51
2018-01-27T05:02:26.812Z,6.55
2018-01-27T05:03:26.823Z,6.58
2018-01-27T05:04:26.839Z,6.58
2018-01-27T05:05:26.848Z,6.74
2018-01-27T05:06:26.878Z,6.70
2018-01-27T05:07:26.874Z,6.54
2018-01-27T05:08:26.889Z,6.55
2018-01-27T05:09:26.903Z,6.52
2018-01-27T05:10:27.103Z,6.55
2018-01-27T05:11:26.927Z,6.55
2018-01-27T05:12:26.941Z,6.54
2018-01-27T05:13:26.954Z,6.51
2018-01-27T05:14:26.969Z,6.54
2018-01-27T05:15:26.990Z,6.55
2018-01-27T05:16:26.996Z,6.59
2018-01-27T05:17:27.010Z,6.71
2018-01-27T05:18:27.022Z,6.62
2018-01-27T05:19:27.187Z,6.59
2018-01-27T05:20:27.093Z,6.58
2018-01-27T05:21:27.061Z,6.59
2018-01-27T05:22:27.076Z,6.52
2018-01-27T05:23:27.086Z,6.43
2018-01-27T05:24:27.101Z,6.43
2018-01-27T05:25:27.263Z,6.58
2018-01-27T05:26:27.125Z,6.54
2018-01-27T05:27:27.153Z,6.55
2018-01-27T05:28:27.150Z,6.58
2018-01-27T05:29:27.164Z,6.52
2018-01-27T05:30:27.179Z,6.55
2018-01-27T05:31:27.190Z,6.54
2018-01-27T05:32:27.232Z,6.56
2018-01-27T05:33:27.216Z,6.59
2018-01-27T05:34:27.231Z,6.54
2018-01-27T05:35:27.243Z,6.66
2018-01-27T05:36:27.256Z,6.56
2018-01-27T05:37:27.268Z,6.55
2018-01-27T05:38:27.281Z,6.55
2018-01-27T05:39:27.296Z,6.54
2018-01-27T05:40:27.310Z,6.56
2018-01-27T05:41:27.318Z,6.64
2018-01-27T05:42:27.332Z,6.59
2018-01-27T05:43:27.344Z,6.56
2018-01-27T05:44:27.510Z,6.61
2018-01-27T05:45:27.375Z,6.56
2018-01-27T05:46:27.384Z,6.54
2018-01-27T05:47:27.398Z,6.56
2018-01-27T05:48:27.561Z,6.54
2018-01-27T05:49:27.424Z,6.61
2018-01-27T05:50:27.448Z,6.52
2018-01-27T05:51:27.459Z,6.62
2018-01-27T05:52:27.461Z,6.55
2018-01-27T05:53:27.475Z,6.58
2018-01-27T05:54:27.639Z,6.62
2018-01-27T05:55:27.501Z,6.66
2018-01-27T05:56:27.514Z,6.66
2018-01-27T05:57:27.539Z,6.66
2018-01-27T05:58:27.695Z,6.70
2018-01-27T05:59:27.707Z,6.69
2018-01-27T06:00:27.680Z,6.67
2018-01-27T06:01:27.583Z,6.71
2018-01-27T06:02:27.600Z,6.69
2018-01-27T06:03:27.606Z,6.69
2018-01-27T06:04:27.618Z,6.67
2018-01-27T06:05:27.631Z,6.66
2018-01-27T06:07:27.720Z,6.58
2018-01-27T06:08:27.992Z,6.56
2018-01-27T06:09:27.683Z,6.54
2018-01-27T06:10:27.697Z,6.58
2018-01-27T06:11:27.709Z,6.54
2018-01-27T06:12:27.724Z,6.55
2018-01-27T06:13:27.736Z,6.49
2018-01-27T06:14:27.749Z,6.56
2018-01-27T06:15:27.765Z,6.49
2018-01-27T06:16:27.776Z,6.49
2018-01-27T06:17:27.789Z,6.52
2018-01-27T06:18:27.801Z,6.46
2018-01-27T06:19:27.815Z,6.54
2018-01-27T06:20:27.827Z,6.58
2018-01-27T06:21:27.841Z,6.54
2018-01-27T06:22:27.854Z,6.58
2018-01-27T06:23:27.869Z,6.55
2018-01-27T06:24:27.882Z,6.44
2018-01-27T06:25:27.892Z,6.43
2018-01-27T06:26:27.905Z,6.48
2018-01-27T06:27:27.919Z,6.40
2018-01-27T06:28:27.933Z,6.44
2018-01-27T06:29:27.945Z,6.48
2018-01-27T06:30:27.958Z,6.48
2018-01-27T06:31:27.974Z,6.48
2018-01-27T06:32:27.993Z,6.54
2018-01-27T06:33:28.001Z,6.51
2018-01-27T06:34:28.012Z,6.55
2018-01-27T06:35:28.025Z,6.49
2018-01-27T06:36:28.039Z,6.58
2018-01-27T06:37:28.052Z,6.49
2018-01-27T06:38:28.063Z,6.51
2018-01-27T06:39:28.081Z,6.48
2018-01-27T06:40:28.101Z,6.54
2018-01-27T06:41:28.114Z,6.58
2018-01-27T06:42:28.118Z,6.55
2018-01-27T06:43:28.134Z,6.52
2018-01-27T06:44:28.148Z,6.52
2018-01-27T06:45:28.157Z,6.55
2018-01-27T06:46:28.171Z,6.59
2018-01-27T06:47:28.183Z,6.58
2018-01-27T06:48:28.197Z,6.62
2018-01-27T06:49:28.211Z,6.59
2018-01-27T06:50:28.224Z,6.69
2018-01-27T06:51:28.240Z,6.67
2018-01-27T06:52:28.249Z,6.69
2018-01-27T06:53:28.263Z,6.73
2018-01-27T06:54:28.275Z,6.73
2018-01-27T06:55:28.334Z,6.77
2018-01-27T06:56:28.303Z,6.77
2018-01-27T06:57:28.321Z,6.87
2018-01-27T06:58:28.341Z,6.85
2018-01-27T06:59:28.343Z,6.76
2018-01-27T07:00:28.363Z,6.77
2018-01-27T07:01:28.371Z,6.79
2018-01-27T07:02:28.419Z,6.76
2018-01-27T07:03:28.400Z,6.85
2018-01-27T07:04:28.424Z,6.89
2018-01-27T07:05:28.424Z,6.85
2018-01-27T07:06:28.436Z,6.73
2018-01-27T07:07:28.449Z,6.85
2018-01-27T07:08:28.466Z,6.87
2018-01-27T07:09:28.878Z,6.84
2018-01-27T07:10:28.491Z,6.88
2018-01-27T07:11:28.506Z,6.97
2018-01-27T07:12:28.516Z,6.88
2018-01-27T07:13:28.531Z,6.85
2018-01-27T07:14:28.543Z,6.94
2018-01-27T07:15:28.563Z,7.03
2018-01-27T07:16:28.569Z,6.88
2018-01-27T07:17:28.584Z,6.97
2018-01-27T07:18:28.597Z,6.91
2018-01-27T07:19:28.608Z,6.95
2018-01-27T07:20:28.623Z,6.94
2018-01-27T07:21:28.639Z,6.97
2018-01-27T07:22:28.653Z,7.05
2018-01-27T07:23:28.668Z,6.95
2018-01-27T07:24:28.675Z,6.95
2018-01-27T07:25:28.689Z,6.99
2018-01-27T07:26:28.701Z,7.05
2018-01-27T07:27:28.715Z,6.95
2018-01-27T07:28:28.729Z,6.97
2018-01-27T07:29:28.744Z,6.98
2018-01-27T07:30:28.753Z,6.95
2018-01-27T07:31:28.767Z,6.92
2018-01-27T07:32:28.782Z,6.99
2018-01-27T07:33:28.797Z,7.05
2018-01-27T07:34:28.809Z,7.05
2018-01-27T07:35:28.825Z,6.91
2018-01-27T07:36:28.836Z,6.97
2018-01-27T07:37:28.935Z,7.02
2018-01-27T07:38:28.861Z,6.99
2018-01-27T07:39:28.979Z,7.03
2018-01-27T07:40:29.155Z,6.99
2018-01-27T07:41:28.902Z,6.98
2018-01-27T07:42:28.923Z,6.98
2018-01-27T07:43:28.927Z,6.91
2018-01-27T07:44:28.944Z,6.98
2018-01-27T07:45:28.956Z,6.94
2018-01-27T07:46:28.980Z,6.91
2018-01-27T07:47:28.983Z,6.87
2018-01-27T07:48:29.146Z,6.81
2018-01-27T07:49:29.010Z,6.84
2018-01-27T07:50:29.022Z,6.89
2018-01-27T07:51:29.036Z,6.89
2018-01-27T07:52:29.054Z,6.91
2018-01-27T07:53:29.064Z,6.87
2018-01-27T07:54:29.077Z,6.99
2018-01-27T07:55:29.089Z,6.92
2018-01-27T07:56:29.102Z,6.85
2018-01-27T07:57:29.116Z,6.85
2018-01-27T07:58:29.128Z,6.73
2018-01-27T07:59:29.142Z,6.85
2018-01-27T08:00:29.157Z,6.80
2018-01-27T08:01:29.169Z,6.89
2018-01-27T08:02:29.186Z,6.92
2018-01-27T08:03:29.199Z,6.87
2018-01-27T08:04:29.216Z,6.84
2018-01-27T08:05:29.224Z,6.79
2018-01-27T08:06:29.244Z,6.74
2018-01-27T08:07:29.282Z,6.84
2018-01-27T08:08:29.261Z,6.80
2018-01-27T08:09:29.288Z,6.77
2018-01-27T08:10:29.291Z,6.80
2018-01-27T08:11:29.303Z,6.76
2018-01-27T08:12:29.317Z,6.79
2018-01-27T08:13:29.330Z,6.77
2018-01-27T08:14:29.614Z,6.79
2018-01-27T08:15:29.469Z,6.73
2018-01-27T08:16:29.369Z,6.76
2018-01-27T08:17:29.433Z,6.80
2018-01-27T08:18:29.394Z,6.79
2018-01-27T08:19:29.408Z,6.77
2018-01-27T08:20:29.425Z,6.77
2018-01-27T08:21:29.434Z,6.77
2018-01-27T08:22:29.607Z,6.73
2018-01-27T08:23:29.465Z,6.69
2018-01-27T08:24:29.476Z,6.67
2018-01-27T08:25:29.490Z,6.77
2018-01-27T08:26:29.502Z,6.76
2018-01-27T08:27:29.514Z,6.77
2018-01-27T08:28:29.632Z,6.79
2018-01-27T08:29:29.542Z,6.80
2018-01-27T08:30:29.560Z,6.71
2018-01-27T08:31:29.569Z,6.87
2018-01-27T08:32:29.582Z,6.81
2018-01-27T08:33:29.604Z,6.73
2018-01-27T08:34:29.615Z,6.77
2018-01-27T08:35:29.628Z,6.74
2018-01-27T08:36:29.636Z,6.87
2018-01-27T08:37:29.652Z,6.81
2018-01-27T08:38:29.666Z,6.77
2018-01-27T08:39:29.693Z,6.73
2018-01-27T08:40:29.701Z,6.70
2018-01-27T08:41:29.730Z,6.64
2018-01-27T08:42:29.726Z,6.69
2018-01-27T08:43:29.731Z,6.71
2018-01-27T08:44:29.751Z,6.76
2018-01-27T08:45:29.760Z,6.67
2018-01-27T08:46:29.772Z,6.74
2018-01-27T08:47:29.786Z,6.70
2018-01-27T08:48:29.799Z,6.76
2018-01-27T08:49:29.811Z,6.80
2018-01-27T08:50:29.827Z,6.71
2018-01-27T08:51:29.841Z,6.70
2018-01-27T08:52:29.855Z,6.67
2018-01-27T08:53:29.865Z,6.66
2018-01-27T08:54:29.882Z,6.74
2018-01-27T08:55:29.893Z,6.71
2018-01-27T08:56:29.905Z,6.77
2018-01-27T08:57:29.923Z,6.81
2018-01-27T08:58:29.934Z,6.80
2018-01-27T08:59:29.952Z,6.81
2018-01-27T09:00:30.162Z,6.94
2018-01-27T09:01:29.974Z,6.91
2018-01-27T09:02:29.991Z,6.88
2018-01-27T09:03:30.001Z,6.91
2018-01-27T09:04:30.031Z,6.99
2018-01-27T09:05:30.026Z,6.99
2018-01-27T09:06:30.048Z,7.05
2018-01-27T09:07:30.053Z,7.05
2018-01-27T09:08:30.072Z,7.06
2018-01-27T09:09:30.094Z,7.15
2018-01-27T09:10:30.110Z,7.12
2018-01-27T09:11:30.108Z,7.07
2018-01-27T09:12:30.150Z,7.17
2018-01-27T09:13:30.355Z,7.13
2018-01-27T09:14:30.149Z,7.10
2018-01-27T09:15:30.191Z,7.10
2018-01-27T09:16:30.177Z,7.23
2018-01-27T09:17:30.193Z,7.23
2018-01-27T09:18:30.202Z,7.20
2018-01-27T09:19:30.218Z,7.21
2018-01-27T09:20:30.233Z,7.13
2018-01-27T09:21:30.250Z,7.12
2018-01-27T09:22:30.441Z,7.24
2018-01-27T09:23:30.710Z,7.24
2018-01-27T09:24:30.282Z,7.17
2018-01-27T09:25:30.298Z,7.32
2018-01-27T09:26:30.316Z,7.27
2018-01-27T09:27:30.355Z,7.34
2018-01-27T09:28:30.338Z,7.45
2018-01-27T09:29:30.349Z,7.34
2018-01-27T09:30:30.671Z,7.32
2018-01-27T09:31:30.380Z,7.46
2018-01-27T09:32:30.391Z,7.43
2018-01-27T09:33:30.404Z,7.35
2018-01-27T09:34:30.419Z,7.34
2018-01-27T09:35:30.436Z,7.43
2018-01-27T09:36:30.446Z,7.46
2018-01-27T09:37:30.459Z,7.45
2018-01-27T09:38:30.474Z,7.42
2018-01-27T09:39:30.509Z,7.49
2018-01-27T09:40:30.503Z,7.48
2018-01-27T09:41:30.524Z,7.48
2018-01-27T09:42:30.683Z,7.55
2018-01-27T09:43:30.549Z,7.50
2018-01-27T09:44:30.705Z,7.68
2018-01-27T09:45:30.578Z,7.64
2018-01-27T09:46:30.616Z,7.63
2018-01-27T09:47:30.615Z,7.71
2018-01-27T09:48:30.912Z,7.80
2018-01-27T09:49:30.769Z,7.79
2018-01-27T09:50:30.635Z,7.82
2018-01-27T09:51:30.645Z,7.93
2018-01-27T09:52:30.664Z,7.95
2018-01-27T09:53:30.673Z,8.01
2018-01-27T09:54:30.692Z,7.93
2018-01-27T09:55:30.702Z,8.01
2018-01-27T09:56:30.716Z,7.95
2018-01-27T09:57:30.734Z,7.90
2018-01-27T09:58:30.745Z,7.97
2018-01-27T09:59:30.758Z,8.01
2018-01-27T10:00:30.769Z,8.07
2018-01-27T10:01:30.787Z,8.07
2018-01-27T10:02:30.796Z,8.18
2018-01-27T10:03:30.947Z,8.18
2018-01-27T10:04:30.825Z,8.18
2018-01-27T10:05:30.839Z,8.15
2018-01-27T10:06:30.853Z,8.18
2018-01-27T10:07:31.117Z,8.20
2018-01-27T10:08:30.886Z,8.29
2018-01-27T10:09:31.049Z,8.19
2018-01-27T10:10:31.057Z,8.26
2018-01-27T10:11:30.923Z,8.37
2018-01-27T10:12:31.086Z,8.37
2018-01-27T10:13:30.954Z,8.37
2018-01-27T10:14:30.966Z,8.33
2018-01-27T10:15:31.599Z,8.44
2018-01-27T10:16:30.993Z,8.47
2018-01-27T10:17:31.008Z,8.50
2018-01-27T10:18:31.019Z,8.52
2018-01-27T10:19:31.039Z,8.50
2018-01-27T10:20:31.048Z,8.56
2018-01-27T10:21:31.064Z,8.53
2018-01-27T10:22:31.082Z,8.53
2018-01-27T10:23:31.091Z,8.41
2018-01-27T10:24:31.103Z,8.43
2018-01-27T10:25:31.120Z,8.52
2018-01-27T10:26:31.134Z,8.36
2018-01-27T10:27:31.147Z,8.38
2018-01-27T10:28:31.160Z,8.30
2018-01-27T10:29:31.175Z,8.04
2018-01-27T10:30:31.186Z,8.05
2018-01-27T10:31:31.200Z,8.16
2018-01-27T10:32:31.219Z,8.10
2018-01-27T10:33:31.232Z,8.18
2018-01-27T10:34:31.396Z,8.11
2018-01-27T10:35:31.263Z,8.02
2018-01-27T10:36:31.270Z,8.01
2018-01-27T10:37:31.284Z,8.00
2018-01-27T10:38:31.296Z,7.82
2018-01-27T10:39:31.311Z,7.89
2018-01-27T10:40:31.330Z,7.87
2018-01-27T10:41:31.339Z,7.86
2018-01-27T10:42:31.353Z,7.83
2018-01-27T10:43:31.366Z,7.89
2018-01-27T10:44:31.421Z,7.87
2018-01-27T10:45:31.395Z,7.80
2018-01-27T10:46:31.416Z,7.85
2018-01-27T10:47:31.425Z,7.75
2018-01-27T10:48:31.435Z,7.79
2018-01-27T10:49:31.447Z,7.79
2018-01-27T10:50:31.462Z,7.92
2018-01-27T10:51:31.481Z,7.98
2018-01-27T10:52:31.507Z,8.07
2018-01-27T10:53:31.502Z,8.10
2018-01-27T10:54:31.515Z,8.15
2018-01-27T10:55:31.528Z,8.08
2018-01-27T10:56:31.690Z,8.19
2018-01-27T10:57:31.555Z,8.19
2018-01-27T10:58:31.568Z,8.22
2018-01-27T10:59:31.583Z,8.19
2018-01-27T11:00:31.600Z,8.15
2018-01-27T11:01:31.759Z,8.11
2018-01-27T11:02:31.628Z,8.00
2018-01-27T11:03:31.638Z,8.02
2018-01-27T11:04:31.652Z,7.97
2018-01-27T11:05:31.664Z,7.98
2018-01-27T11:06:31.684Z,7.92
2018-01-27T11:07:31.692Z,7.98
2018-01-27T11:08:31.707Z,7.90
2018-01-27T11:09:31.721Z,7.93
2018-01-27T11:10:31.892Z,7.95
2018-01-27T11:11:31.749Z,7.97
2018-01-27T11:12:31.759Z,8.00
2018-01-27T11:13:31.778Z,8.02
2018-01-27T11:14:31.788Z,7.89
2018-01-27T11:15:31.965Z,7.98
2018-01-27T11:16:31.834Z,8.00
2018-01-27T11:17:31.832Z,7.92
2018-01-27T11:18:31.842Z,8.00
2018-01-27T11:19:31.864Z,7.90
2018-01-27T11:20:31.887Z,7.90
2018-01-27T11:21:31.901Z,7.90
2018-01-27T11:22:31.901Z,7.82
2018-01-27T11:23:31.942Z,7.93
2018-01-27T11:24:31.923Z,7.89
2018-01-27T11:25:31.993Z,7.86
2018-01-27T11:26:31.951Z,7.90
2018-01-27T11:27:32.693Z,7.86
2018-01-27T11:28:32.536Z,7.83
2018-01-27T11:29:31.991Z,7.83
2018-01-27T11:30:32.006Z,7.79
2018-01-27T11:31:32.019Z,7.83
2018-01-27T11:32:32.033Z,7.80
2018-01-27T11:33:32.051Z,7.82
2018-01-27T11:34:32.060Z,7.83
2018-01-27T11:35:32.074Z,7.89
2018-01-27T11:36:32.090Z,7.86
2018-01-27T11:37:32.102Z,7.89
2018-01-27T11:38:32.114Z,7.89
2018-01-27T11:39:32.129Z,7.87
2018-01-27T11:40:32.142Z,7.86
2018-01-27T11:41:32.164Z,7.87
2018-01-27T11:42:32.324Z,7.90
2018-01-27T11:43:32.184Z,7.92
2018-01-27T11:44:32.212Z,7.90
2018-01-27T11:45:32.211Z,7.89
2018-01-27T11:46:32.226Z,7.82
2018-01-27T11:47:32.238Z,7.86
2018-01-27T11:48:32.252Z,7.90
2018-01-27T11:49:32.269Z,7.92
2018-01-27T11:50:32.280Z,7.87
2018-01-27T11:51:32.295Z,7.89
2018-01-27T11:52:32.307Z,7.85
2018-01-27T11:53:32.326Z,7.92
2018-01-27T11:54:32.368Z,8.01
2018-01-27T11:55:32.368Z,7.92
2018-01-27T11:56:32.368Z,7.93
2018-01-27T11:57:32.375Z,8.01
2018-01-27T11:58:32.390Z,7.97
2018-01-27T11:59:32.403Z,7.92
2018-01-27T12:00:32.418Z,8.00
2018-01-27T12:01:32.429Z,7.98
2018-01-27T12:02:32.445Z,7.97
2018-01-27T12:03:32.458Z,8.01
2018-01-27T12:04:32.471Z,8.02
2018-01-27T12:05:32.486Z,8.02
2018-01-27T12:06:32.499Z,8.02
2018-01-27T12:07:32.532Z,7.98
2018-01-27T12:08:32.531Z,7.92
2018-01-27T12:09:32.699Z,7.90
2018-01-27T12:10:32.704Z,7.93
2018-01-27T12:11:32.570Z,7.93
2018-01-27T12:12:32.589Z,7.90
2018-01-27T12:13:32.597Z,7.93
2018-01-27T12:14:32.610Z,7.95
2018-01-27T12:15:32.623Z,7.93
2018-01-27T12:16:32.641Z,7.97
2018-01-27T12:17:32.652Z,7.95
2018-01-27T12:18:32.665Z,8.01
2018-01-27T12:19:32.679Z,8.00
2018-01-27T12:20:32.697Z,8.02
2018-01-27T12:21:32.708Z,8.04
2018-01-27T12:22:32.722Z,8.05
2018-01-27T12:23:32.735Z,8.07
2018-01-27T12:24:32.756Z,8.05
2018-01-27T12:25:32.816Z,8.11
2018-01-27T12:26:33.125Z,7.98
2018-01-27T12:27:32.807Z,7.97
2018-01-27T12:28:32.808Z,7.93
2018-01-27T12:29:32.819Z,7.95
2018-01-27T12:30:32.834Z,7.98
2018-01-27T12:31:32.848Z,8.01
2018-01-27T12:32:32.862Z,7.95
2018-01-27T12:33:32.880Z,8.05
2018-01-27T12:34:32.887Z,8.01
2018-01-27T12:35:32.905Z,8.01
2018-01-27T12:36:32.920Z,8.04
2018-01-27T12:37:32.933Z,8.07
2018-01-27T12:38:32.943Z,8.02
2018-01-27T12:39:32.959Z,8.08
2018-01-27T12:40:32.973Z,8.02
2018-01-27T12:41:33.091Z,8.12
2018-01-27T12:42:32.999Z,8.19
2018-01-27T12:43:33.017Z,8.04
2018-01-27T12:44:33.027Z,8.01
2018-01-27T12:45:33.041Z,7.92
2018-01-27T12:46:33.053Z,8.01
2018-01-27T12:47:33.116Z,8.01
2018-01-27T12:48:33.085Z,7.87
2018-01-27T12:49:33.098Z,7.92
2018-01-27T12:50:33.111Z,7.97
2018-01-27T12:51:33.126Z,8.01
2018-01-27T12:52:33.148Z,7.95
2018-01-27T12:53:33.162Z,7.92
2018-01-27T12:54:33.168Z,7.92
2018-01-27T12:55:33.182Z,7.95
2018-01-27T12:56:33.198Z,8.00
2018-01-27T12:57:33.238Z,7.92
2018-01-27T12:58:33.222Z,8.01
2018-01-27T12:59:33.238Z,7.95
2018-01-27T13:00:33.256Z,7.98
2018-01-27T13:01:33.287Z,8.01
2018-01-27T13:02:33.277Z,8.05
2018-01-27T13:03:33.296Z,8.10
2018-01-27T13:04:33.308Z,8.16
2018-01-27T13:06:33.904Z,8.25
2018-01-27T13:07:33.824Z,8.20
2018-01-27T13:08:33.389Z,8.19
2018-01-27T13:09:33.377Z,8.16
2018-01-27T13:10:33.395Z,8.19
2018-01-27T13:11:33.404Z,8.15
2018-01-27T13:12:33.422Z,8.18
2018-01-27T13:13:33.448Z,8.07
2018-01-27T13:14:33.466Z,8.02
2018-01-27T13:15:33.462Z,8.02
2018-01-27T13:16:33.474Z,8.08
2018-01-27T13:17:33.493Z,8.10
2018-01-27T13:18:33.500Z,8.19
2018-01-27T13:19:33.517Z,8.20
2018-01-27T13:20:33.541Z,8.25
2018-01-27T13:21:33.552Z,8.26
2018-01-27T13:22:33.566Z,8.22
2018-01-27T13:23:33.580Z,8.29
2018-01-27T13:24:33.591Z,8.33